地図

経路データ

SID SEASON NUMBER BASIN SUBBASIN NAME ISO_TIME NATURE LAT LON WMO_WIND WMO_PRES WMO_AGENCY TRACK_TYPE DIST2LAND LANDFALL IFLAG USA_AGENCY USA_ATCF_ID USA_LAT USA_LON USA_RECORD USA_STATUS USA_WIND USA_PRES USA_SSHS USA_R34_NE USA_R34_SE USA_R34_SW USA_R34_NW USA_R50_NE USA_R50_SE USA_R50_SW USA_R50_NW USA_R64_NE USA_R64_SE USA_R64_SW USA_R64_NW USA_POCI USA_ROCI USA_RMW USA_EYE TOKYO_LAT TOKYO_LON TOKYO_GRADE TOKYO_WIND TOKYO_PRES TOKYO_R50_DIR TOKYO_R50_LONG TOKYO_R50_SHORT TOKYO_R30_DIR TOKYO_R30_LONG TOKYO_R30_SHORT TOKYO_LAND CMA_LAT CMA_LON CMA_CAT CMA_WIND CMA_PRES HKO_LAT HKO_LON HKO_CAT HKO_WIND HKO_PRES NEWDELHI_LAT NEWDELHI_LON NEWDELHI_GRADE NEWDELHI_WIND NEWDELHI_PRES NEWDELHI_CI NEWDELHI_DP NEWDELHI_POCI REUNION_LAT REUNION_LON REUNION_TYPE REUNION_WIND REUNION_PRES REUNION_TNUM REUNION_CI REUNION_RMW REUNION_R34_NE REUNION_R34_SE REUNION_R34_SW REUNION_R34_NW REUNION_R50_NE REUNION_R50_SE REUNION_R50_SW REUNION_R50_NW REUNION_R64_NE REUNION_R64_SE REUNION_R64_SW REUNION_R64_NW BOM_LAT BOM_LON BOM_TYPE BOM_WIND BOM_PRES BOM_TNUM BOM_CI BOM_RMW BOM_R34_NE BOM_R34_SE BOM_R34_SW BOM_R34_NW BOM_R50_NE BOM_R50_SE BOM_R50_SW BOM_R50_NW BOM_R64_NE BOM_R64_SE BOM_R64_SW BOM_R64_NW BOM_ROCI BOM_POCI BOM_EYE BOM_POS_METHOD BOM_PRES_METHOD NADI_LAT NADI_LON NADI_CAT NADI_WIND NADI_PRES WELLINGTON_LAT WELLINGTON_LON WELLINGTON_WIND WELLINGTON_PRES DS824_LAT DS824_LON DS824_STAGE DS824_WIND DS824_PRES TD9636_LAT TD9636_LON TD9636_STAGE TD9636_WIND TD9636_PRES TD9635_LAT TD9635_LON TD9635_WIND TD9635_PRES TD9635_ROCI NEUMANN_LAT NEUMANN_LON NEUMANN_CLASS NEUMANN_WIND NEUMANN_PRES MLC_LAT MLC_LON MLC_CLASS MLC_WIND MLC_PRES USA_GUST BOM_GUST BOM_GUST_PER REUNION_GUST REUNION_GUST_PER USA_SEAHGT USA_SEARAD_NE USA_SEARAD_SE USA_SEARAD_SW USA_SEARAD_NW STORM_SPEED STORM_DIR
1997284N04179 1997 96 WP MM JOAN 1997-10-11 00:00:00 NR 3.80000 178.600 main 2158 2158 O_____________ jtwc_wp WP281997 3.80000 178.600 15 -1 16 285
1997284N04179 1997 96 WP MM JOAN 1997-10-11 03:00:00 NR 4.01014 177.810 main 2218 2218 P_____________ WP281997 4.01014 177.810 15 -1 17 287
1997284N04179 1997 96 WP MM JOAN 1997-10-11 06:00:00 NR 4.30000 177.000 main 2289 2251 O_____________ jtwc_wp WP281997 4.30000 177.000 15 -1 18 293
1997284N04179 1997 96 WP MM JOAN 1997-10-11 09:00:00 NR 4.71993 176.157 main 2251 2215 P_____________ WP281997 4.71993 176.157 15 -1 19 298
1997284N04179 1997 96 WP MM JOAN 1997-10-11 12:00:00 NR 5.20000 175.300 main 2215 2184 O_____________ jtwc_wp WP281997 5.20000 175.300 15 -1 19 299
1997284N04179 1997 96 WP MM JOAN 1997-10-11 15:00:00 NR 5.65737 174.450 main 2185 2157 P_____________ WP281997 5.65737 174.450 17 -1 19 298
1997284N04179 1997 96 WP MM JOAN 1997-10-11 18:00:00 NR 6.10000 173.600 main 2158 2126 O_____________ jtwc_wp WP281997 6.10000 173.600 20 -1 19 296
1997284N04179 1997 96 WP MM JOAN 1997-10-11 21:00:00 NR 6.49247 172.727 main 2128 2108 P_____________ WP281997 6.49247 172.727 20 -1 19 295
1997284N04179 1997 96 WP MM JOAN 1997-10-12 00:00:00 NR 6.90000 171.900 main 2111 2100 O_____________ jtwc_wp WP281997 6.90000 171.900 20 -1 18 299
1997284N04179 1997 96 WP MM JOAN 1997-10-12 03:00:00 NR 7.36985 171.162 main 2113 2104 P_____________ WP281997 7.36985 171.162 20 -1 17 306
1997284N04179 1997 96 WP MM JOAN 1997-10-12 06:00:00 NR 7.90000 170.500 main 2119 2119 O_____________ jtwc_wp WP281997 7.90000 170.500 20 -1 17 311
1997284N04179 1997 96 WP MM JOAN 1997-10-12 09:00:00 NR 8.49243 169.862 main 2145 2140 P_____________ WP281997 8.49243 169.862 22 -1 17 315
1997284N04179 1997 96 WP MM JOAN 1997-10-12 12:00:00 NR 9.10000 169.300 main 2175 2175 O_____________ jtwc_wp WP281997 9.10000 169.300 25 -1 16 318
1997284N04179 1997 96 WP MM JOAN 1997-10-12 15:00:00 NR 9.68744 168.790 main 2213 2209 P_____________ WP281997 9.68744 168.790 25 -1 14 321
1997284N04179 1997 96 WP MM JOAN 1997-10-12 18:00:00 NR 10.2000 168.400 main 2247 2247 O_____________ jtwc_wp WP281997 10.2000 168.400 25 -1 11 326
1997284N04179 1997 96 WP MM JOAN 1997-10-12 21:00:00 NR 10.5948 168.177 main 2281 2281 P_____________ WP281997 10.5948 168.177 25 -1 8 331
1997284N04179 1997 96 WP MM JOAN 1997-10-13 00:00:00 NR 10.9000 168.000 main 2304 2304 O_____________ jtwc_wp WP281997 10.9000 168.000 25 -1 8 321
1997284N04179 1997 96 WP MM JOAN 1997-10-13 03:00:00 NR 11.1800 167.700 main 2325 2325 P_____________ WP281997 11.1800 167.700 25 -1 5 335
1997284N04179 1997 96 WP MM JOAN 1997-10-13 06:00:00 TS 11.3600 167.780 1008 tokyo main 2349 2349 OO____________ jtwc_wp WP281997 11.4000 167.400 25 -1 11.2000 169.300 2 1008 0 0 0 4 0
1997284N04179 1997 96 WP MM JOAN 1997-10-13 09:00:00 TS 11.5700 167.718 main 2367 2367 PP____________ WP281997 11.5724 167.192 27 -1 11.5652 168.768 2 1008 0 0 5 329
1997284N04179 1997 96 WP MM JOAN 1997-10-13 12:00:00 TS 11.7857 167.514 1008 tokyo main 2381 2377 OO____________ jtwc_wp WP281997 11.7000 167.000 30 -1 11.9000 168.200 2 1008 0 0 0 7 309
1997284N04179 1997 96 WP MM JOAN 1997-10-13 15:00:00 TS 11.9861 167.184 main 2383 2368 PP____________ WP281997 11.7924 166.795 30 -1 12.1799 167.572 2 1007 0 0 9 297
1997284N04179 1997 96 WP MM JOAN 1997-10-13 18:00:00 TS 12.1778 166.711 1006 tokyo main 2370 2343 OO_O__________ jtwc_wp WP281997 11.9000 166.500 30 -1 12.4000 166.900 2 1006 0 0 0 12.4000 166.800 TD 30 1002 11 291
1997284N04179 1997 96 WP MM JOAN 1997-10-13 21:00:00 TS 12.3751 166.122 main 2345 2312 PP_P__________ WP281997 12.0850 166.045 30 -1 12.5725 166.192 2 1005 0 0 12.5604 166.135 TD 30 1002 12 288
1997284N04179 1997 96 WP MM JOAN 1997-10-14 00:00:00 TS 12.5545 165.500 1004 tokyo main 2321 2290 OO_O__________ jtwc_wp WP281997 12.3000 165.500 30 -1 12.7000 165.500 2 1004 0 0 0 12.7000 165.500 TD 30 1002 12 286
1997284N04179 1997 96 WP MM JOAN 1997-10-14 03:00:00 TS 12.7099 164.908 main 2290 2265 PP_P__________ WP281997 12.5075 164.950 32 -1 12.8149 164.855 2 1004 0 0 12.8074 164.920 TD 30 1002 12 283
1997284N04179 1997 96 WP MM JOAN 1997-10-14 06:00:00 TS 12.8154 164.346 1004 tokyo main 2258 2241 OOOO__________ jtwc_wp WP281997 12.7000 164.400 35 0 12.9000 164.300 2 1004 0 0 0 12.6000 164.100 1 23 1004 12.9000 164.400 TD 30 1002 10 282
1997284N04179 1997 96 WP MM JOAN 1997-10-14 09:00:00 TS 12.9084 163.923 main 2241 2228 PPPP__________ WP281997 12.8649 163.892 37 0 12.9647 163.877 2 1002 0 0 12.6847 164.050 1 26 1002 13.0073 163.935 TD 32 1000 8 282
1997284N04179 1997 96 WP MM JOAN 1997-10-14 12:00:00 TS 12.9867 163.533 35 1000 tokyo main 2224 2200 OOOO__________ jtwc_wp WP281997 13.0000 163.400 40 0 13.0000 163.500 3 35 1000 0 9 160 160 0 12.8000 163.800 1 29 1000 13.1000 163.500 TS 35 998 9 280
1997284N04179 1997 96 WP MM JOAN 1997-10-14 15:00:00 TS 13.0557 163.057 main 2209 2179 PPPP__________ WP281997 13.1074 162.892 42 0 13.0000 163.050 3 35 998 0 9 170 170 12.9579 163.238 1 31 998 13.1574 163.050 TS 35 998 10 278
1997284N04179 1997 96 WP MM JOAN 1997-10-14 18:00:00 TS 13.1250 162.550 35 996 tokyo main 2179 2165 OOOO__________ jtwc_wp WP281997 13.2000 162.400 45 0 13.0000 162.600 3 35 996 0 9 180 180 0 13.1000 162.600 2 34 996 13.2000 162.600 TS 35 998 9 279
1997284N04179 1997 96 WP MM JOAN 1997-10-14 21:00:00 TS 13.1910 162.131 main 2159 2136 PPPP__________ WP281997 13.3148 161.950 47 0 13.0348 162.215 3 37 994 0 9 190 190 13.1646 162.200 2 34 996 13.2499 162.157 TS 37 996 8 279
1997284N04179 1997 96 WP MM JOAN 1997-10-15 00:00:00 TS 13.2500 161.700 40 992 tokyo main 2145 2117 OOOO__________ jtwc_wp WP281997 13.4000 161.500 50 0 13.1000 161.800 3 40 992 0 9 200 200 0 13.2000 161.800 2 34 996 13.3000 161.700 TS 40 994 9 277
1997284N04179 1997 96 WP MM JOAN 1997-10-15 03:00:00 TS 13.3037 161.181 main 2117 2089 PPPP__________ WP281997 13.4149 161.015 50 0 13.2000 161.273 3 42 991 0 9 210 210 13.2501 161.223 2 36 994 13.3499 161.215 TS 42 992 11 275
1997284N04179 1997 96 WP MM JOAN 1997-10-15 06:00:00 TS 13.3500 160.625 45 990 tokyo main 2094 2068 OOOO__________ jtwc_wp WP281997 13.4000 160.500 50 0 13.3000 160.700 3 45 990 0 9 220 220 0 13.3000 160.600 2 38 992 13.4000 160.700 TS 45 990 11 275
1997284N04179 1997 96 WP MM JOAN 1997-10-15 09:00:00 TS 13.3930 160.075 main 2068 2043 PPPP__________ WP281997 13.3999 159.958 55 0 13.3574 160.150 3 47 987 0 9 220 220 13.3574 160.035 2 41 991 13.4574 160.158 TS 47 987 11 274
1997284N04179 1997 96 WP MM JOAN 1997-10-15 12:00:00 TS 13.4250 159.525 50 985 tokyo main 2038 2013 OOOO__________ jtwc_wp WP281997 13.4000 159.400 60 0 13.4000 159.600 4 50 985 0 9 220 220 0 13.4000 159.500 2 44 990 13.5000 159.600 STS 50 985 11 272
1997284N04179 1997 96 WP MM JOAN 1997-10-15 15:00:00 TS 13.4373 158.993 main 2013 1989 PPPP__________ WP281997 13.3923 158.857 65 1 13.4574 159.050 4 55 980 0 9 230 230 13.3998 159.007 2 49 987 13.4998 159.057 STS 52 982 10 271
1997284N04179 1997 96 WP MM JOAN 1997-10-15 18:00:00 TS 13.4500 158.450 60 975 tokyo main 1999 1972 OOOO__________ jtwc_wp WP281997 13.4000 158.300 70 1 13.5000 158.500 4 60 975 9 60 60 9 240 240 0 13.4000 158.500 3 54 985 13.5000 158.500 STS 55 980 11 272
1997284N04179 1997 96 WP MM JOAN 1997-10-15 21:00:00 TS 13.4761 157.879 main 1972 1947 PPPP__________ WP281997 13.4424 157.708 80 1 13.4848 157.965 4 65 967 9 70 70 9 250 250 13.4348 157.930 3 59 980 13.5424 157.915 STS 60 975 11 274
1997284N04179 1997 96 WP MM JOAN 1997-10-16 00:00:00 TS 13.5250 157.275 70 960 tokyo main 1947 1935 OOOO__________ jtwc_wp WP281997 13.5000 157.100 90 2 13.5000 157.400 5 70 960 9 80 80 9 260 260 0 13.5000 157.300 4 64 975 13.6000 157.300 T 65 970 12 276
1997284N04179 1997 96 WP MM JOAN 1997-10-16 03:00:00 TS 13.6087 156.634 main 1931 1921 PPPP__________ WP281997 13.5499 156.500 97 3 13.6424 156.773 5 72 957 9 90 90 9 270 270 13.6000 156.608 4 66 972 13.6424 156.657 T 67 967 13 278
1997284N04179 1997 96 WP MM JOAN 1997-10-16 06:00:00 TS 13.7000 155.975 75 955 tokyo main 1921 1906 OOOO__________ jtwc_wp WP281997 13.6000 155.900 105 3 13.8000 156.100 5 75 955 9 100 100 9 280 280 0 13.7000 155.900 4 68 970 13.7000 156.000 T 70 965 13 277
1997284N04179 1997 96 WP MM JOAN 1997-10-16 09:00:00 TS 13.7641 155.334 main 1911 1895 PPPP__________ WP281997 13.6422 155.322 115 4 13.8649 155.407 5 77 952 9 110 110 9 290 290 13.7497 155.250 4 72 965 13.7998 155.358 T 72 962 13 276
1997284N04179 1997 96 WP MM JOAN 1997-10-16 12:00:00 TS 13.8250 154.675 80 950 tokyo main 1895 1888 OOOO__________ jtwc_wp WP281997 13.7000 154.700 125 4 13.9000 154.700 5 80 950 9 120 120 9 300 300 0 13.8000 154.600 4 77 960 13.9000 154.700 T 75 960 13 275
1997284N04179 1997 96 WP MM JOAN 1997-10-16 15:00:00 TS 13.8886 153.977 main 1890 1881 PPPP__________ WP281997 13.7849 153.980 125 4 13.9347 154.007 5 85 945 9 130 130 9 312 312 13.8849 153.907 4 82 955 13.9498 154.015 T 77 957 14 276
1997284N04179 1997 96 WP MM JOAN 1997-10-16 18:00:00 TS 13.9750 153.250 90 940 tokyo main 1889 1882 OOOO__________ jtwc_wp WP281997 13.9000 153.200 125 4 14.0000 153.300 5 90 940 9 140 140 9 325 325 0 14.0000 153.200 5 87 950 14.0000 153.300 T 80 955 14 278
1997284N04179 1997 96 WP MM JOAN 1997-10-16 21:00:00 TS 14.1010 152.509 main 1890 1888 PPPP__________ WP281997 14.0499 152.400 132 4 14.1273 152.557 5 92 935 9 150 150 9 325 325 14.1421 152.522 5 87 950 14.0848 152.557 T 82 952 15 281
1997284N04179 1997 96 WP MM JOAN 1997-10-17 00:00:00 TS 14.2500 151.750 95 930 tokyo main 1900 1884 OOOO__________ jtwc_wp WP281997 14.2000 151.600 140 5 14.3000 151.800 5 95 930 9 160 160 9 325 325 0 14.3000 151.800 5 87 950 14.2000 151.800 ST 85 950 15 281
1997284N04179 1997 96 WP MM JOAN 1997-10-17 03:00:00 TS 14.3942 150.977 main 1890 1883 PPPP__________ WP281997 14.2922 150.842 150 5 14.4997 151.057 5 97 922 9 165 165 9 325 325 14.4502 150.950 5 92 945 14.3347 151.057 ST 87 947 15 281
1997284N04179 1997 96 WP MM JOAN 1997-10-17 06:00:00 TS 14.5500 150.200 100 915 tokyo main 1896 1885 OOOO__________ jtwc_wp WP281997 14.4000 150.100 160 5 14.7000 150.300 5 100 915 9 170 170 9 325 325 0 14.6000 150.100 5 97 940 14.5000 150.300 ST 90 945 15 282
1997284N04179 1997 96 WP MM JOAN 1997-10-17 09:00:00 TS 14.7135 149.434 main 1894 1893 PPPP__________ WP281997 14.5773 149.350 160 5 14.8499 149.500 5 102 910 9 175 175 9 325 325 14.7420 149.385 5 97 940 14.6849 149.500 ST 92 942 15 283
1997284N04179 1997 96 WP MM JOAN 1997-10-17 12:00:00 TS 14.9000 148.675 105 905 tokyo main 1909 1908 OOOO__________ jtwc_wp WP281997 14.8000 148.600 160 5 15.0000 148.700 5 105 905 9 180 180 9 325 325 0 14.9000 148.700 5 97 940 14.9000 148.700 ST 95 940 15 285
1997284N04179 1997 96 WP MM JOAN 1997-10-17 15:00:00 TS 15.1098 147.919 main 1927 1927 PPPP__________ WP281997 15.0348 147.850 150 5 15.1847 147.935 5 105 905 9 175 175 9 325 325 15.0773 147.957 5 101 935 15.1422 147.935 ST 97 935 15 287
1997284N04179 1997 96 WP MM JOAN 1997-10-17 18:00:00 TS 15.3500 147.175 105 905 tokyo main 1960 1960 OOOO__________ jtwc_wp WP281997 15.3000 147.100 140 5 15.4000 147.200 5 105 905 9 170 170 9 325 325 0 15.3000 147.200 6 106 930 15.4000 147.200 SuperT 100 930 15 290
1997284N04179 1997 96 WP MM JOAN 1997-10-17 21:00:00 TS 15.6154 146.439 main 1982 1982 PPPP__________ WP281997 15.5924 146.335 137 5 15.6422 146.492 5 105 905 9 165 165 9 325 325 15.5849 146.435 6 106 930 15.6422 146.492 SuperT 97 932 15 291
1997284N04179 1997 96 WP MM JOAN 1997-10-18 00:00:00 TS 15.9000 145.725 105 905 tokyo main 2018 2018 OOOO__________ jtwc_wp WP281997 15.9000 145.600 135 4 15.9000 145.800 5 105 905 9 160 160 9 325 325 0 15.9000 145.700 6 106 930 15.9000 145.800 ST 95 935 15 293
1997284N04179 1997 96 WP MM JOAN 1997-10-18 03:00:00 TS 16.1911 145.031 main 2057 2057 PPPP__________ WP281997 16.2072 144.927 137 5 16.1499 145.085 5 105 905 9 160 160 9 325 325 16.2072 145.027 6 106 930 16.1999 145.085 ST 95 935 14 294
1997284N04179 1997 96 WP MM JOAN 1997-10-18 06:00:00 TS 16.4750 144.375 105 905 tokyo main 2075 2030 OOOO__________ jtwc_wp WP281997 16.5000 144.300 140 5 16.4000 144.400 5 105 905 9 160 160 9 325 325 0 16.5000 144.400 6 106 930 16.5000 144.400 ST 95 935 13 294
1997284N04179 1997 96 WP MM JOAN 1997-10-18 09:00:00 TS 16.7228 143.765 main 2030 1975 PPPP__________ WP281997 16.7497 143.700 145 5 16.6347 143.785 5 105 907 9 160 160 9 325 325 16.7498 143.792 6 106 930 16.7572 143.785 ST 95 935 13 294
1997284N04179 1997 96 WP MM JOAN 1997-10-18 12:00:00 TS 16.9750 143.175 105 910 tokyo main 1975 1922 OOOO__________ jtwc_wp WP281997 17.0000 143.100 150 5 16.9000 143.200 5 105 910 9 160 160 9 325 325 0 17.0000 143.200 6 106 930 17.0000 143.200 ST 95 935 13 296
1997284N04179 1997 96 WP MM JOAN 1997-10-18 15:00:00 TS 17.2749 142.561 main 1922 1869 PPPP__________ WP281997 17.3000 142.443 147 5 17.2498 142.600 5 105 910 9 160 160 9 325 325 17.2998 142.600 6 106 930 17.2498 142.600 ST 95 935 13 297
1997284N04179 1997 96 WP MM JOAN 1997-10-18 18:00:00 TS 17.5750 141.950 105 910 tokyo main 1870 1818 OOOO__________ jtwc_wp WP281997 17.6000 141.800 145 5 17.6000 142.000 5 105 910 9 160 160 9 325 325 0 17.6000 142.000 6 106 930 17.5000 142.000 ST 95 935 13 296
1997284N04179 1997 96 WP MM JOAN 1997-10-18 21:00:00 TS 17.8380 141.347 main 1808 1760 PPPP__________ WP281997 17.8648 141.227 145 5 17.8724 141.385 5 105 910 9 160 160 9 325 325 17.8649 141.385 6 106 930 17.7499 141.392 ST 95 935 12 294
1997284N04179 1997 96 WP MM JOAN 1997-10-19 00:00:00 TS 18.0750 140.775 105 910 tokyo main 1760 1715 OOOO__________ jtwc_wp WP281997 18.1000 140.700 145 5 18.1000 140.800 5 105 910 9 160 160 9 325 325 0 18.1000 140.800 6 106 930 18.0000 140.800 ST 95 935 11 293
1997284N04179 1997 96 WP MM JOAN 1997-10-19 03:00:00 TS 18.2911 140.240 main 1709 1669 PPPP__________ WP281997 18.2999 140.185 142 5 18.3074 140.270 5 105 910 9 160 160 9 325 325 18.3073 140.277 6 106 930 18.2499 140.227 ST 92 937 11 294
1997284N04179 1997 96 WP MM JOAN 1997-10-19 06:00:00 TS 18.5000 139.750 105 910 tokyo main 1669 1623 OOOO__________ jtwc_wp WP281997 18.5000 139.700 140 5 18.5000 139.800 5 105 910 9 160 160 9 325 325 0 18.5000 139.800 6 106 930 18.5000 139.700 ST 90 940 10 295
1997284N04179 1997 96 WP MM JOAN 1997-10-19 09:00:00 TS 18.7155 139.295 main 1623 1582 PPPP__________ WP281997 18.7424 139.235 140 5 18.6848 139.392 5 105 910 9 160 160 9 325 325 18.6849 139.335 6 106 930 18.7499 139.220 ST 90 940 9 299
1997284N04179 1997 96 WP MM JOAN 1997-10-19 12:00:00 TS 18.9500 138.875 105 910 tokyo main 1573 1533 OOOO__________ jtwc_wp WP281997 19.0000 138.800 140 5 18.9000 139.000 5 105 910 9 160 160 9 325 325 0 18.9000 138.900 6 106 930 19.0000 138.800 ST 90 940 9 302
1997284N04179 1997 96 WP MM JOAN 1997-10-19 15:00:00 TS 19.2118 138.454 main 1533 1483 PPPP__________ WP281997 19.2425 138.377 140 5 19.1851 138.535 5 105 910 9 160 160 9 325 325 19.1775 138.477 6 106 930 19.2424 138.427 ST 90 940 9 306
1997284N04179 1997 96 WP MM JOAN 1997-10-19 18:00:00 TS 19.5000 138.075 105 910 tokyo main 1483 1438 OOOO__________ jtwc_wp WP281997 19.5000 138.000 140 5 19.5000 138.100 5 105 910 9 160 160 9 325 325 0 19.5000 138.100 6 106 930 19.5000 138.100 ST 90 940 9 312
1997284N04179 1997 96 WP MM JOAN 1997-10-19 21:00:00 TS 19.8030 137.751 main 1438 1394 PPPP__________ WP281997 19.7849 137.670 140 5 19.7924 137.770 5 105 912 9 155 155 9 325 325 19.8424 137.777 6 106 930 19.7924 137.785 ST 90 940 8 318
1997284N04179 1997 96 WP MM JOAN 1997-10-20 00:00:00 TS 20.1250 137.475 105 915 tokyo main 1394 1350 OOOO__________ jtwc_wp WP281997 20.1000 137.400 140 5 20.1000 137.500 5 105 915 9 150 150 9 325 325 0 20.2000 137.500 6 106 930 20.1000 137.500 ST 90 940 8 323
1997284N04179 1997 96 WP MM JOAN 1997-10-20 03:00:00 TS 20.4606 137.215 main 1340 1301 PPPP__________ WP281997 20.4424 137.177 137 5 20.4425 137.227 5 102 917 9 150 150 9 325 325 20.5650 137.227 6 106 930 20.3925 137.227 ST 90 940 8 327
1997284N04179 1997 96 WP MM JOAN 1997-10-20 06:00:00 TS 20.8000 137.000 100 920 tokyo main 1301 1261 OOOO__________ jtwc_wp WP281997 20.8000 137.000 135 4 20.8000 137.000 5 100 920 9 150 150 9 325 325 0 20.9000 137.000 6 106 930 20.7000 137.000 ST 90 940 8 331
1997284N04179 1997 96 WP MM JOAN 1997-10-20 09:00:00 TS 21.1175 136.820 main 1261 1227 PPPP__________ WP281997 21.1425 136.827 135 4 21.1500 136.812 5 97 922 9 150 150 9 337 337 21.1425 136.820 6 106 930 21.0350 136.820 ST 90 940 7 337
1997284N04179 1997 96 WP MM JOAN 1997-10-20 12:00:00 TS 21.4500 136.700 95 925 tokyo main 1217 1182 OOOO__________ jtwc_wp WP281997 21.5000 136.700 135 4 21.5000 136.700 5 95 925 9 150 150 9 350 350 0 21.4000 136.700 6 106 930 21.4000 136.700 ST 90 940 7 345
1997284N04179 1997 96 WP MM JOAN 1997-10-20 15:00:00 TS 21.8168 136.618 main 1182 1143 PPPP__________ WP281997 21.8850 136.605 137 5 21.8275 136.655 5 92 927 9 150 150 9 350 350 21.7700 136.605 6 101 932 21.7850 136.605 ST 90 940 8 355
1997284N04179 1997 96 WP MM JOAN 1997-10-20 18:00:00 TS 22.2250 136.625 90 930 tokyo main 1143 1100 OOOO__________ jtwc_wp WP281997 22.3000 136.600 140 5 22.2000 136.700 5 90 930 9 150 150 9 350 350 0 22.2000 136.600 5 97 935 22.2000 136.600 ST 90 940 9 7
1997284N04179 1997 96 WP MM JOAN 1997-10-20 21:00:00 TS 22.6781 136.741 main 1100 1073 PPPP__________ WP281997 22.7425 136.705 137 5 22.6925 136.827 5 90 932 9 150 150 9 362 325 22.6350 136.720 5 97 937 22.6425 136.712 ST 90 940 10 17
1997284N04179 1997 96 WP MM JOAN 1997-10-21 00:00:00 TS 23.1500 136.925 90 935 tokyo main 1064 1035 OOOO__________ jtwc_wp WP281997 23.2000 136.900 135 4 23.2000 137.000 5 90 935 9 150 150 3 375 300 0 23.1000 136.900 5 97 940 23.1000 136.900 ST 90 940 10 18
1997284N04179 1997 96 WP MM JOAN 1997-10-21 03:00:00 TS 23.5942 137.068 main 1035 1003 PPPP__________ WP281997 23.6498 137.105 132 4 23.5923 137.106 5 90 935 9 150 150 3 375 300 23.5922 136.998 5 97 940 23.5423 137.063 ST 87 942 10 21
1997284N04179 1997 96 WP MM JOAN 1997-10-21 06:00:00 TS 24.0500 137.300 90 935 tokyo main 999 981 OOOO__________ jtwc_wp WP281997 24.1000 137.400 130 4 24.0000 137.300 5 90 935 9 150 150 3 375 300 0 24.1000 137.200 5 97 940 24.0000 137.300 ST 85 945 11 31
1997284N04179 1997 96 WP MM JOAN 1997-10-21 09:00:00 TS 24.5525 137.694 main 978 963 PPPP__________ WP281997 24.5424 137.798 130 4 24.5603 137.698 5 90 935 9 150 150 3 375 300 24.6151 137.640 5 97 940 24.4923 137.640 ST 85 945 13 39
1997284N04179 1997 96 WP MM JOAN 1997-10-21 12:00:00 TS 25.0500 138.200 90 935 tokyo main 955 925 OOOO__________ jtwc_wp WP281997 25.0000 138.300 130 4 25.1000 138.200 5 90 935 9 150 150 3 375 300 0 25.1000 138.200 5 97 940 25.0000 138.100 ST 85 945 13 44
1997284N04179 1997 96 WP MM JOAN 1997-10-21 15:00:00 TS 25.5072 138.724 85 940 tokyo main 925 892 POPP__________ WP281997 25.4846 138.848 125 4 25.5000 138.700 5 85 940 9 140 140 3 350 280 0 25.5519 138.705 5 92 945 25.4922 138.641 ST 82 945 14 48
1997284N04179 1997 96 WP MM JOAN 1997-10-21 18:00:00 TS 25.9800 139.353 85 940 tokyo main 895 874 OOOO__________ jtwc_wp WP281997 26.0000 139.500 120 4 26.0000 139.300 5 85 940 9 130 130 3 350 280 0 25.9000 139.300 5 87 950 26.0000 139.300 T 80 945 16 52
1997284N04179 1997 96 WP MM JOAN 1997-10-21 21:00:00 TS 26.4747 140.091 80 945 tokyo main 873 863 POPP__________ WP281997 26.5495 140.241 117 4 26.5000 140.000 5 80 945 9 100 100 3 300 260 0 26.0842 140.043 5 82 955 26.5645 140.040 T 77 947 18 54
1997284N04179 1997 96 WP MM JOAN 1997-10-22 00:00:00 TS 27.0308 140.962 80 950 tokyo main 870 838 OOOO__________ jtwc_wp WP281997 27.1000 141.100 115 4 27.1000 140.900 5 80 950 9 90 90 3 280 250 0 26.2000 140.900 4 77 960 27.1000 140.900 T 75 950 19 56
1997284N04179 1997 96 WP MM JOAN 1997-10-22 03:00:00 TS 27.5555 141.901 80 950 tokyo main 834 824 POPP__________ WP281997 27.6220 142.055 112 3 27.5000 141.800 5 80 950 9 90 90 3 280 250 0 26.4267 141.747 4 27.5444 141.848 T 72 952 20 62
1997284N04179 1997 96 WP MM JOAN 1997-10-22 06:00:00 TS 27.9667 142.967 75 955 tokyo main 823 820 OOPO__________ jtwc_wp WP281997 28.1000 143.100 110 3 27.9000 142.900 5 75 955 9 80 80 9 250 250 0 26.7099 142.641 4 27.9000 142.900 T 70 955 22 70
1997284N04179 1997 96 WP MM JOAN 1997-10-22 09:00:00 TS 28.3079 144.200 75 955 tokyo main 840 840 POPP__________ WP281997 28.5516 144.170 110 3 28.2000 144.400 5 75 955 9 80 80 9 250 250 0 27.0374 143.587 4 28.1721 144.029 T 67 957 22 74
1997284N04179 1997 96 WP MM JOAN 1997-10-22 12:00:00 TS 28.5667 145.367 70 960 tokyo main 873 873 OOPO__________ jtwc_wp WP281997 28.9000 145.300 110 3 28.4000 145.600 5 70 960 9 70 70 9 240 240 0 27.3967 144.591 4 28.4000 145.200 T 65 960 20 77
1997284N04179 1997 96 WP MM JOAN 1997-10-22 15:00:00 TS 28.7805 146.461 main 915 915 PPPP__________ WP281997 29.0868 146.487 107 3 28.5910 146.561 5 67 962 9 65 65 9 230 230 27.7753 145.661 4 28.6636 146.335 T 62 962 20 78
1997284N04179 1997 96 WP MM JOAN 1997-10-22 18:00:00 TS 28.9667 147.567 65 965 tokyo main 967 967 OOPO__________ jtwc_wp WP281997 29.2000 147.700 105 3 28.8000 147.500 5 65 965 9 60 60 9 220 220 0 28.1604 146.803 4 28.9000 147.500 STS 60 965 21 79
1997284N04179 1997 96 WP MM JOAN 1997-10-22 21:00:00 TS 29.1618 148.778 main 1033 1033 PPPP__________ WP281997 29.3639 148.900 100 3 29.0573 148.697 5 65 967 9 60 60 9 215 215 28.5389 148.022 4 29.0642 148.736 STS 57 967 22 80
1997284N04179 1997 96 WP MM JOAN 1997-10-23 00:00:00 TS 29.3333 150.033 65 970 tokyo main 1110 1110 OOPO__________ jtwc_wp WP281997 29.5000 150.100 95 2 29.3000 150.000 5 65 970 9 60 60 9 210 210 0 28.8975 149.324 4 29.2000 150.000 STS 55 970 22 82
1997284N04179 1997 96 WP MM JOAN 1997-10-23 03:00:00 TS 29.4557 151.257 main 1192 1192 PPPP__________ WP281997 29.5485 151.286 92 2 29.4703 151.256 5 62 972 9 55 55 9 205 205 29.2226 150.715 4 29.3482 151.228 STS 52 972 22 84
1997284N04179 1997 96 WP MM JOAN 1997-10-23 06:00:00 TS 29.5667 152.508 60 975 tokyo main 1278 1278 OOOO__________ jtwc_wp WP281997 29.6000 152.500 90 2 29.6000 152.600 4 60 975 9 50 50 9 200 200 0 29.5000 152.200 3 48 985 29.5000 152.500 STS 50 975 23 83
1997284N04179 1997 96 WP MM JOAN 1997-10-23 09:00:00 TS 29.7366 153.916 main 1384 1384 PPPP__________ WP281997 29.7560 153.762 90 2 29.7222 154.120 4 60 975 9 50 50 9 200 200 29.7421 153.803 3 48 985 29.6535 153.869 STS 47 977 25 83
1997284N04179 1997 96 WP MM JOAN 1997-10-23 12:00:00 TS 29.8583 155.392 60 975 tokyo main 1497 1497 OOOO__________ jtwc_wp WP281997 29.9000 155.100 90 2 29.8000 155.700 4 60 975 9 50 50 9 200 200 0 29.9000 155.400 3 48 985 29.8000 155.300 TS 45 980 26 87
1997284N04179 1997 96 WP MM JOAN 1997-10-23 15:00:00 TS 29.8902 156.880 main 1624 1624 PPP___________ WP281997 29.9214 156.521 87 2 29.8063 157.231 4 57 977 9 45 45 9 190 190 29.9431 156.888 3 48 985 TS 25 90
1997284N04179 1997 96 WP MM JOAN 1997-10-23 18:00:00 TS 29.8667 158.333 55 980 tokyo main 1744 1744 OOO___________ jtwc_wp WP281997 29.9000 158.000 85 2 29.8000 158.700 4 55 980 9 40 40 9 180 180 0 29.9000 158.300 3 48 985 25 91
1997284N04179 1997 96 WP MM JOAN 1997-10-23 21:00:00 TS 29.8482 159.746 main 1870 1870 PPP___________ WP281997 29.8905 159.478 82 1 29.8395 160.042 4 52 982 9 9 180 180 29.8146 159.718 3 43 988 24 90
1997284N04179 1997 96 WP MM JOAN 1997-10-24 00:00:00 TS 29.8455 161.145 50 985 tokyo main 1992 1992 OOO___________ jtwc_wp WP281997 29.9000 161.000 80 1 29.9000 161.400 4 50 985 0 9 180 180 0 29.7000 161.000 2 38 992 25 90
1997284N04179 1997 96 WP MM JOAN 1997-10-24 03:00:00 TS 29.8661 162.612 main 2076 2076 PPP___________ WP281997 29.9406 162.570 77 1 29.9270 162.929 4 987 0 9 29.5956 162.065 2 33 995 26 88
1997284N04179 1997 96 WP MM JOAN 1997-10-24 06:00:00 MX 29.9444 164.200 990 tokyo main 2154 2154 OOO___________ jtwc_wp WP281997 30.0000 164.200 75 1 30.0000 164.500 6 990 0 0 0 29.5000 163.000 1 29 998 28 87
1997284N04179 1997 96 WP MM JOAN 1997-10-24 09:00:00 ET 30.0266 165.877 main 2234 2234 PP____________ WP281997 29.9788 165.837 75 1 30.0744 165.917 6 990 0 0 1 29 84
1997284N04179 1997 96 WP MM JOAN 1997-10-24 12:00:00 ET 30.2286 167.557 990 tokyo main 2307 2307 OO____________ jtwc_wp WP281997 30.1000 167.600 75 1 30.4000 167.500 6 990 0 0 0 33 78
1997284N04179 1997 96 WP MM JOAN 1997-10-24 15:00:00 ET 30.6792 169.568 main 2379 2379 PP____________ WP281997 30.4494 169.601 70 1 31.1387 169.503 6 991 0 0 37 73
1997284N04179 1997 96 WP MM JOAN 1997-10-24 18:00:00 ET 31.3000 171.720 992 tokyo main 2457 2457 OO____________ jtwc_wp WP281997 31.1000 171.700 65 1 32.1000 171.800 6 992 0 0 0 39 70
1997284N04179 1997 96 WP MM JOAN 1997-10-24 21:00:00 NR 31.9865 173.855 main 2507 2494 P_____________ WP281997 31.9865 173.855 62 0 6 0 0 39 61
1997284N04179 1997 96 WP MM JOAN 1997-10-25 00:00:00 NR 33.2000 175.800 main 2491 2305 O_____________ jtwc_wp WP281997 33.2000 175.800 60 0 40 47
1997284N04179 1997 96 WP MM JOAN 1997-10-25 03:00:00 NR 34.6914 177.325 main 2295 2092 P_____________ WP281997 34.6914 177.325 60 0 39 35
1997284N04179 1997 96 WP MM JOAN 1997-10-25 06:00:00 NR 36.4000 178.500 main 2078 1883 O_____________ jtwc_wp WP281997 36.4000 178.500 60 0 39 27
1997284N04179 1997 96 WP MM JOAN 1997-10-25 09:00:00 NR 38.1253 179.489 main 1869 1668 P_____________ WP281997 38.1253 179.489 60 0 38 22
1997284N04179 1997 96 EP CP JOAN 1997-10-25 12:00:00 NR 39.9000 180.300 main 1658 1463 O_____________ jtwc_wp WP281997 39.9000 -179.700 60 0 37 19
1997284N04179 1997 96 EP CP JOAN 1997-10-25 15:00:00 NR 41.6591 181.088 main 1449 1262 P_____________ WP281997 41.6591 -178.912 60 0 37 19
1997284N04179 1997 96 EP CP JOAN 1997-10-25 18:00:00 NR 43.4000 181.900 main 1252 O_____________ jtwc_wp WP281997 43.4000 -178.100 60 0 37 19

デジタル台風データ・検索

IBTrACS Databaseについて

本データベースは、米国NOAAが公開する1842年以降の世界の熱帯低気圧のベストトラックデータアーカイブInternational Best Track Archive for Climate Stewardship (IBTrACS)を、ウェブで閲覧しやすい形式に変換したものです。

最終更新日:2021-10-21